Time;durP1;ratioP1;P1;durP2;ratioP2;P2;SDS_P1;SDS_P2;PMS_P1;PMS_P2;Temp;Humidity;BMP_temperature;BMP_pressure;BME280_temperature;BME280_humidity;BME280_pressure;Samples;Min_cycle;Max_cycle;Signal;HPM_P1;HPM_P2
2023/06/05 00:03:57;;;;;;;0.68;0.68;;;;;;;8.93;88.44;100891.53;10264889;29;20050;-85
2023/06/05 00:09:00;;;;;;;1.85;0.60;;;;;;;8.89;88.41;100893.16;10263411;29;20062;-85
2023/06/05 00:14:02;;;;;;;0.70;0.70;;;;;;;8.86;88.29;100897.25;10238073;28;20430;-87
2023/06/05 00:19:04;;;;;;;0.75;0.70;;;;;;;8.85;88.21;100898.34;10234854;29;20050;-86
2023/06/05 00:24:06;;;;;;;0.60;0.60;;;;;;;8.88;88.08;100916.13;10223694;29;20055;-85
2023/06/05 00:29:09;;;;;;;0.60;0.60;;;;;;;8.84;88.47;100917.72;10257007;28;20062;-87
2023/06/05 00:34:12;;;;;;;0.47;0.47;;;;;;;8.82;88.15;100919.91;10254497;29;20519;-88
2023/06/05 00:39:14;;;;;;;0.60;0.60;;;;;;;8.86;88.03;100919.16;10257748;29;20039;-87
2023/06/05 00:44:18;;;;;;;1.30;0.60;;;;;;;8.91;87.69;100910.97;10229723;29;20043;-85
2023/06/05 00:49:20;;;;;;;1.02;0.65;;;;;;;8.99;88.18;100926.88;10272904;28;20058;-88
2023/06/05 00:54:22;;;;;;;0.60;0.60;;;;;;;9.05;88.14;100923.09;10264962;29;20521;-86
2023/06/05 00:59:26;;;;;;;0.60;0.60;;;;;;;9.08;88.13;100927.22;10249619;29;20050;-85
2023/06/05 01:04:29;;;;;;;0.88;0.75;;;;;;;9.13;87.89;100926.41;10270281;28;20046;-85
2023/06/05 01:09:32;;;;;;;0.98;0.80;;;;;;;9.19;87.66;100934.38;10248497;29;20043;-84
2023/06/05 01:14:36;;;;;;;0.52;0.52;;;;;;;9.21;87.56;100936.88;10214949;29;20050;-87
2023/06/05 01:19:39;;;;;;;1.23;0.60;;;;;;;9.27;87.94;100931.16;10249341;28;20051;-87
2023/06/05 01:24:42;;;;;;;0.47;0.47;;;;;;;9.33;88.03;100932.84;10264039;29;20039;-87
2023/06/05 01:30:33;;;;;;;0.45;0.45;;;;;;;9.38;87.56;100933.97;10249161;29;20048;-85
2023/06/05 01:35:36;;;;;;;0.60;0.60;;;;;;;9.43;87.96;100936.72;10212865;29;20046;-87
2023/06/05 01:40:39;;;;;;;0.63;0.60;;;;;;;9.45;87.33;100942.75;10245290;28;20043;-85
2023/06/05 01:45:41;;;;;;;0.85;0.77;;;;;;;9.48;87.38;100944.97;10264572;29;20132;-87
2023/06/05 01:50:44;;;;;;;0.60;0.60;;;;;;;9.50;87.21;100948.25;10249996;29;20050;-85
2023/06/05 01:55:48;;;;;;;0.70;0.57;;;;;;;9.51;87.09;100947.16;10263978;28;20416;-83
2023/06/05 02:00:52;;;;;;;0.65;0.65;;;;;;;9.52;85.09;100946.06;10249066;29;20419;-87
2023/06/05 02:05:54;;;;;;;0.60;0.60;;;;;;;9.56;84.09;100939.81;10229823;29;20046;-84
2023/06/05 02:10:57;;;;;;;0.70;0.70;;;;;;;9.62;83.11;100946.13;10263240;28;20046;-84
2023/06/05 02:15:59;;;;;;;0.50;0.50;;;;;;;9.66;82.50;100952.72;10265097;28;20050;-86
2023/06/05 02:21:03;;;;;;;1.42;0.50;;;;;;;9.72;82.06;100945.34;10240551;29;20051;-84
2023/06/05 02:26:06;;;;;;;1.73;0.77;;;;;;;9.77;80.85;100953.59;10256288;29;20050;-84
2023/06/05 02:31:08;;;;;;;0.85;0.70;;;;;;;9.85;79.67;100953.88;10255260;29;20042;-86
2023/06/05 02:36:15;;;;;;;1.25;0.50;;;;;;;9.98;79.76;100958.06;10250220;29;20049;-86
2023/06/05 02:41:18;;;;;;;0.47;0.47;;;;;;;10.21;78.55;100954.03;10251224;29;20043;-86
2023/06/05 02:46:24;;;;;;;0.50;0.50;;;;;;;10.96;76.72;100951.63;10274099;28;20421;-84
2023/06/05 02:51:28;;;;;;;0.52;0.52;;;;;;;11.55;73.23;100961.94;10269309;29;20433;-86
2023/06/05 02:56:30;;;;;;;0.95;0.68;;;;;;;12.21;69.65;100962.50;10231685;29;20047;-87
2023/06/05 03:01:34;;;;;;;2.05;0.40;;;;;;;12.57;67.81;100959.50;10238858;29;20043;-85
2023/06/05 03:06:43;;;;;;;0.55;0.55;;;;;;;13.05;65.25;100970.69;10255716;29;20051;-86
2023/06/05 03:11:46;;;;;;;0.43;0.43;;;;;;;13.45;64.10;100964.78;10239393;29;20054;-85
2023/06/05 03:16:53;;;;;;;0.60;0.50;;;;;;;13.95;62.59;100968.06;10275175;29;20508;-83
2023/06/05 03:21:58;;;;;;;0.50;0.50;;;;;;;14.34;61.34;100970.53;10257753;28;20043;-87
2023/06/05 03:27:00;;;;;;;1.13;0.60;;;;;;;14.44;59.13;100958.56;10237360;28;20062;-85
2023/06/05 03:32:03;;;;;;;0.73;0.65;;;;;;;14.36;58.95;100961.97;10268819;29;20047;-85
2023/06/05 03:37:08;;;;;;;0.50;0.40;;;;;;;14.62;57.85;100965.22;10245705;28;20055;-88
2023/06/05 03:42:11;;;;;;;0.50;0.50;;;;;;;14.99;56.77;100965.13;10237039;29;20051;-85
2023/06/05 03:47:15;;;;;;;0.73;0.50;;;;;;;15.63;53.56;100963.44;10249020;29;20058;-86
2023/06/05 03:52:23;;;;;;;0.30;0.30;;;;;;;15.50;53.57;100968.91;10267765;28;20055;-85
2023/06/05 03:57:25;;;;;;;2.08;0.40;;;;;;;15.57;52.95;100961.84;10250379;29;20050;-85
2023/06/05 04:02:27;;;;;;;0.45;0.40;;;;;;;15.49;51.88;100965.34;10263851;29;20517;-86
2023/06/05 04:07:30;;;;;;;0.40;0.40;;;;;;;16.28;50.71;100963.13;10234537;29;20046;-85
2023/06/05 04:12:32;;;;;;;0.40;0.40;;;;;;;16.55;49.04;100970.56;10259970;28;20394;-87
2023/06/05 04:17:37;;;;;;;0.85;0.43;;;;;;;16.78;47.98;100965.88;10235812;29;20067;-87
2023/06/05 04:22:41;;;;;;;0.38;0.38;;;;;;;16.78;47.50;100968.63;10219530;29;20047;-85
2023/06/05 04:27:45;;;;;;;1.85;0.50;;;;;;;15.96;48.86;100966.06;10237001;28;20031;-86
2023/06/05 04:32:54;;;;;;;3.35;0.70;;;;;;;15.35;50.41;100967.25;10250095;29;20428;-84
2023/06/05 04:37:56;;;;;;;0.43;0.43;;;;;;;14.83;50.99;100969.28;10249247;29;20484;-87
2023/06/05 04:43:01;;;;;;;0.50;0.50;;;;;;;14.65;51.91;100975.66;10201812;29;20538;-84
2023/06/05 04:48:04;;;;;;;0.88;0.43;;;;;;;14.41;52.69;100981.25;10262806;29;20054;-84
2023/06/05 04:53:08;;;;;;;0.47;0.47;;;;;;;14.11;53.32;100982.47;10250863;29;20062;-84
2023/06/05 04:58:12;;;;;;;0.40;0.40;;;;;;;14.00;53.71;100973.50;10211325;29;20048;-85
2023/06/05 05:03:16;;;;;;;0.63;0.60;;;;;;;14.32;53.13;100958.97;10224604;28;20062;-83
2023/06/05 05:08:19;;;;;;;0.77;0.60;;;;;;;14.28;52.84;100960.72;10234029;28;20039;-83
2023/06/05 05:13:23;;;;;;;0.50;0.50;;;;;;;14.38;53.55;100976.28;10264568;28;20035;-85
2023/06/05 05:18:28;;;;;;;0.43;0.43;;;;;;;14.54;54.70;100968.63;10220257;28;20416;-84
2023/06/05 05:23:31;;;;;;;0.77;0.70;;;;;;;14.76;56.59;100966.09;10232509;28;20444;-85
2023/06/05 05:28:33;;;;;;;1.08;0.80;;;;;;;15.20;59.49;100975.81;10258921;29;20393;-87
2023/06/05 05:33:36;;;;;;;2.58;0.70;;;;;;;15.02;60.24;100964.53;10233756;29;20058;-85
2023/06/05 05:38:39;;;;;;;0.50;0.50;;;;;;;15.02;60.48;100960.94;10234682;29;20047;-86
2023/06/05 05:43:41;;;;;;;1.08;0.60;;;;;;;15.66;59.26;100948.97;10233170;29;20051;-88
2023/06/05 05:48:44;;;;;;;0.60;0.60;;;;;;;16.75;56.36;100943.50;10214836;29;20031;-89
2023/06/05 05:53:46;;;;;;;1.77;0.93;;;;;;;17.97;52.84;100948.53;10249904;28;20059;-86
2023/06/05 05:58:48;;;;;;;1.48;0.88;;;;;;;18.33;52.15;100962.97;10308143;28;20057;-85
2023/06/05 06:03:51;;;;;;;0.80;0.70;;;;;;;17.81;52.21;100964.81;10220022;29;20433;-83
2023/06/05 06:08:53;;;;;;;1.00;0.50;;;;;;;18.15;51.86;100969.63;10253746;28;20039;-86
2023/06/05 06:13:55;;;;;;;0.50;0.50;;;;;;;18.81;49.42;100967.56;10282269;28;20500;-87
2023/06/05 06:18:57;;;;;;;1.10;0.75;;;;;;;18.85;48.56;100971.31;10253799;29;20783;-88
2023/06/05 06:23:59;;;;;;;0.77;0.77;;;;;;;19.30;47.55;100968.13;10252093;29;20520;-86
2023/06/05 06:29:02;;;;;;;1.02;0.73;;;;;;;19.69;45.97;100964.25;10283643;28;20412;-87
2023/06/05 06:34:04;;;;;;;0.50;0.50;;;;;;;19.01;46.41;100963.28;10273458;29;20054;-85
2023/06/05 06:39:10;;;;;;;0.98;0.40;;;;;;;18.17;47.37;100978.44;10228351;29;20043;-86
2023/06/05 06:44:13;;;;;;;0.73;0.60;;;;;;;17.71;47.85;100976.22;10279606;28;20054;-87
2023/06/05 06:49:15;;;;;;;1.30;0.60;;;;;;;17.54;47.86;100982.47;10254899;29;20051;-85
2023/06/05 06:54:17;;;;;;;0.75;0.75;;;;;;;17.36;48.65;100975.22;10256477;29;20413;-85
2023/06/05 06:59:20;;;;;;;4.53;1.13;;;;;;;17.33;49.21;100978.59;10254834;29;20051;-84
2023/06/05 07:04:22;;;;;;;1.35;0.98;;;;;;;17.97;46.68;100977.09;10255404;29;20046;-85
2023/06/05 07:09:24;;;;;;;1.20;0.73;;;;;;;18.36;46.00;100973.41;10255310;29;20043;-84
2023/06/05 07:14:27;;;;;;;0.63;0.50;;;;;;;18.92;44.47;100970.84;10240409;29;20497;-86
2023/06/05 07:19:30;;;;;;;1.77;0.50;;;;;;;19.36;43.11;100974.34;10255249;28;20040;-85
2023/06/05 07:24:35;;;;;;;1.75;0.60;;;;;;;19.81;41.32;100963.53;10255397;28;20122;-86
2023/06/05 07:29:37;;;;;;;0.52;0.50;;;;;;;20.46;39.98;100964.94;10250046;29;20062;-85
2023/06/05 07:34:39;;;;;;;1.58;0.50;;;;;;;20.76;39.01;100960.09;10252936;28;20045;-87
2023/06/05 07:39:41;;;;;;;0.93;0.75;;;;;;;21.16;36.82;100962.31;10255517;29;20058;-86
2023/06/05 07:44:43;;;;;;;0.60;0.60;;;;;;;20.55;37.04;100968.47;10241843;29;20039;-86
2023/06/05 07:49:56;;;;;;;0.85;0.50;;;;;;;21.67;35.84;100974.88;10270837;29;20497;-87
2023/06/05 07:54:59;;;;;;;0.47;0.40;;;;;;;21.65;35.29;100986.41;10294383;28;20272;-85
2023/06/05 08:00:04;;;;;;;1.63;0.70;;;;;;;21.56;35.46;100973.75;10286733;29;20051;-88
2023/06/05 08:05:17;;;;;;;0.75;0.70;;;;;;;21.49;35.55;100981.84;10272606;29;20032;-85
2023/06/05 08:10:19;;;;;;;0.77;0.30;;;;;;;20.62;35.61;100988.25;10239071;28;20054;-86
2023/06/05 08:15:22;;;;;;;2.35;0.50;;;;;;;20.50;37.25;100993.78;10269341;28;20043;-83
2023/06/05 08:20:24;;;;;;;1.25;0.43;;;;;;;20.55;36.75;100996.38;10254062;29;20062;-85
2023/06/05 08:25:30;;;;;;;0.55;0.40;;;;;;;20.34;36.24;100999.13;10254140;28;20058;-88
2023/06/05 08:30:36;;;;;;;2.33;0.82;;;;;;;20.21;37.33;101000.19;10304298;28;20035;-86
2023/06/05 08:35:40;;;;;;;1.60;0.30;;;;;;;19.78;39.31;100992.84;10253861;28;20061;-83
2023/06/05 08:40:43;;;;;;;0.65;0.40;;;;;;;19.93;39.41;100982.31;10242001;29;20047;-84
2023/06/05 08:45:50;;;;;;;1.35;0.52;;;;;;;19.65;39.67;100987.53;10319005;28;20043;-88
2023/06/05 08:50:54;;;;;;;1.90;0.50;;;;;;;20.18;38.13;100981.34;10244978;29;20053;-87
2023/06/05 08:55:56;;;;;;;2.80;0.75;;;;;;;20.11;37.87;100984.66;10270870;29;20523;-85
2023/06/05 09:01:00;;;;;;;1.95;0.57;;;;;;;19.90;39.12;100977.41;10236763;28;20051;-84
2023/06/05 09:06:03;;;;;;;0.57;0.40;;;;;;;19.37;40.96;100987.09;10253520;29;20054;-85
2023/06/05 09:11:25;;;;;;;2.58;0.40;;;;;;;18.68;42.24;100997.16;10238223;29;20120;-88
2023/06/05 09:16:39;;;;;;;1.75;0.40;;;;;;;18.34;42.03;100983.22;10277517;28;20451;-86
2023/06/05 09:21:52;;;;;;;2.17;0.52;;;;;;;18.04;42.55;100991.31;10278025;28;20057;-88
2023/06/05 09:27:00;;;;;;;2.90;0.40;;;;;;;18.10;42.76;100991.19;10283985;29;20035;-90
2023/06/05 09:32:06;;;;;;;2.40;0.50;;;;;;;18.10;42.84;100983.69;10266702;28;20041;-92
2023/06/05 09:37:09;;;;;;;1.15;0.40;;;;;;;17.82;43.21;100987.84;10262529;28;20043;-89
2023/06/05 09:42:12;;;;;;;0.85;0.20;;;;;;;17.99;43.27;100985.94;10282377;29;20039;-90
2023/06/05 09:47:17;;;;;;;1.95;0.43;;;;;;;17.85;43.54;100981.63;10233550;29;20046;-88
2023/06/05 09:52:19;;;;;;;2.03;0.60;;;;;;;17.73;44.15;100987.81;10286096;28;20433;-92
2023/06/05 09:57:24;;;;;;;3.38;0.40;;;;;;;17.47;44.58;100977.38;10252378;29;20047;-91
2023/06/05 10:02:33;;;;;;;0.98;0.30;;;;;;;17.17;45.58;100978.19;10248761;29;20086;-87
2023/06/05 10:07:38;;;;;;;2.85;0.50;;;;;;;16.88;46.12;100984.22;10250434;28;20047;-91
2023/06/05 10:12:41;;;;;;;2.78;0.95;;;;;;;16.71;46.18;100987.66;10219779;29;20052;-86
2023/06/05 10:17:43;;;;;;;0.40;0.40;;;;;;;16.91;46.92;100985.53;10220897;29;20043;-87
2023/06/05 10:22:46;;;;;;;3.65;0.60;;;;;;;16.70;48.12;100996.28;10233321;29;20043;-86
2023/06/05 10:28:05;;;;;;;0.70;0.50;;;;;;;16.46;50.49;101002.06;10217413;29;20496;-87
2023/06/05 10:33:20;;;;;;;2.13;0.63;;;;;;;16.19;52.45;100997.41;10229112;29;20043;-87
2023/06/05 10:38:26;;;;;;;2.17;0.80;;;;;;;16.06;52.21;100998.25;10274804;28;20043;-88
2023/06/05 10:43:48;;;;;;;1.65;0.40;;;;;;;16.09;51.96;100998.44;10271721;28;20047;-88
2023/06/05 10:49:12;;;;;;;1.60;0.65;;;;;;;15.90;48.91;100995.78;10249047;29;20160;-88
2023/06/05 10:54:23;;;;;;;8.52;1.08;;;;;;;15.28;49.52;100988.97;10271235;29;20065;-88
2023/06/05 10:59:46;;;;;;;3.78;0.90;;;;;;;15.08;50.67;100990.94;10278889;28;20039;-90
2023/06/05 11:04:53;;;;;;;2.40;1.15;;;;;;;15.09;50.79;100981.53;10246261;28;20055;-90
2023/06/05 11:10:20;;;;;;;3.53;1.20;;;;;;;15.49;50.58;100989.41;10239074;28;20493;-89
2023/06/05 11:15:36;;;;;;;1.33;0.70;;;;;;;15.53;50.73;100979.38;10273693;28;20503;-89
2023/06/05 11:20:45;;;;;;;3.07;0.87;;;;;;;15.65;50.23;100976.94;10254539;28;20035;-89
2023/06/05 11:25:51;;;;;;;3.30;0.90;;;;;;;15.61;50.77;100987.78;10282575;29;20043;-89
2023/06/05 11:31:39;;;;;;;2.25;0.85;;;;;;;15.87;50.84;100954.91;10249508;28;20420;-91
2023/06/05 11:36:42;;;;;;;2.75;1.02;;;;;;;15.55;51.15;100977.09;10261052;29;20145;-89
2023/06/05 11:41:50;;;;;;;3.15;0.90;;;;;;;15.38;51.13;100975.75;10272410;29;20039;-91
2023/06/05 11:46:52;;;;;;;2.72;0.70;;;;;;;15.29;50.38;100961.00;10262811;28;20051;-88
2023/06/05 11:51:55;;;;;;;5.10;0.98;;;;;;;15.17;50.88;100966.19;10256702;28;20512;-89
2023/06/05 11:56:59;;;;;;;2.67;1.20;;;;;;;15.13;50.64;100969.88;10221864;29;20039;-91
2023/06/05 12:02:03;;;;;;;1.35;0.80;;;;;;;15.12;50.80;100958.00;10286112;28;20034;-92
2023/06/05 12:07:05;;;;;;;3.00;1.00;;;;;;;15.22;50.78;100957.81;10238241;28;20042;-87
2023/06/05 12:12:08;;;;;;;2.90;1.02;;;;;;;14.98;51.31;100954.38;10236684;29;20133;-91
2023/06/05 12:17:11;;;;;;;1.52;0.88;;;;;;;15.05;51.53;100954.81;10238719;29;20043;-90
2023/06/05 12:22:13;;;;;;;2.58;0.63;;;;;;;15.24;51.42;100946.44;10240131;29;20042;-90
2023/06/05 12:27:17;;;;;;;1.38;0.80;;;;;;;15.35;52.12;100950.66;10267971;29;20047;-91
2023/06/05 12:32:22;;;;;;;5.05;2.45;;;;;;;15.44;51.73;100953.53;10245527;28;20039;-90
2023/06/05 12:37:29;;;;;;;1.92;0.75;;;;;;;15.28;51.73;100966.84;10238882;29;20190;-90
2023/06/05 12:42:37;;;;;;;1.52;0.90;;;;;;;15.15;52.70;100965.69;10262396;28;20066;-90
2023/06/05 12:47:43;;;;;;;5.25;1.02;;;;;;;15.29;52.43;100960.19;10237397;29;20039;-89
2023/06/05 12:52:46;;;;;;;2.53;0.85;;;;;;;15.24;51.83;100966.63;10270339;29;20055;-88
2023/06/05 12:57:51;;;;;;;1.65;1.00;;;;;;;15.25;52.03;100975.72;10240266;28;20047;-89
2023/06/05 13:02:54;;;;;;;2.03;0.93;;;;;;;15.19;52.09;100965.91;10255558;29;20110;-91
2023/06/05 13:07:58;;;;;;;3.63;1.20;;;;;;;15.26;52.58;100969.06;10238307;29;20547;-91
2023/06/05 13:13:01;;;;;;;2.20;0.93;;;;;;;15.34;52.49;100966.44;10259601;29;20038;-90
2023/06/05 13:18:03;;;;;;;1.88;0.85;;;;;;;15.33;51.77;100961.22;10225222;29;20046;-90
2023/06/05 13:23:07;;;;;;;1.42;0.90;;;;;;;15.46;52.19;100959.59;10244710;29;20062;-89
2023/06/05 13:28:10;;;;;;;4.35;1.08;;;;;;;15.55;52.15;100952.22;10262004;29;20035;-89
2023/06/05 13:33:12;;;;;;;2.88;1.02;;;;;;;15.54;51.80;100969.94;10262569;28;20038;-87
2023/06/05 13:38:15;;;;;;;1.92;0.80;;;;;;;15.46;52.19;100960.41;10268007;29;20059;-89
2023/06/05 13:43:17;;;;;;;0.90;0.63;;;;;;;15.25;52.65;100962.72;10249056;29;20523;-88
2023/06/05 13:48:20;;;;;;;2.28;1.00;;;;;;;15.14;53.61;100963.22;10288628;28;20413;-89
2023/06/05 13:53:23;;;;;;;1.67;0.90;;;;;;;15.32;54.03;100960.41;10268067;28;20455;-88
2023/06/05 13:58:29;;;;;;;2.63;0.98;;;;;;;15.38;54.14;100964.69;10236661;28;20043;-90
2023/06/05 14:03:56;;;;;;;3.10;1.00;;;;;;;15.26;54.97;100972.66;10240441;29;20436;-89
2023/06/05 14:08:59;;;;;;;1.30;0.80;;;;;;;15.11;55.09;100972.13;10256629;29;20037;-90
2023/06/05 14:14:02;;;;;;;4.13;0.90;;;;;;;14.90;56.69;100974.41;10226133;29;20039;-89
2023/06/05 14:19:09;;;;;;;2.75;1.17;;;;;;;14.88;57.28;100962.84;10268462;29;20050;-88
2023/06/05 14:24:12;;;;;;;;;;;;;;;14.84;57.40;100950.75;10271403;29;20047;-86
2023/06/05 14:29:14;;;;;;;5.10;1.52;;;;;;;14.68;57.67;100958.47;10282402;28;19928;-87
2023/06/05 14:34:17;;;;;;;2.90;0.90;;;;;;;14.56;58.17;100952.56;10280229;28;20047;-86
2023/06/05 14:39:22;;;;;;;3.13;0.80;;;;;;;14.59;58.85;100954.75;10325229;28;20066;-93
2023/06/05 14:44:24;;;;;;;2.67;1.30;;;;;;;14.65;58.57;100954.38;10238545;28;20053;-89
2023/06/05 14:49:26;;;;;;;2.25;1.75;;;;;;;14.82;59.28;100953.00;10235255;28;20425;-86
2023/06/05 14:54:32;;;;;;;3.53;1.20;;;;;;;14.72;59.29;100949.28;10242991;29;20045;-90
2023/06/05 14:59:34;;;;;;;3.70;1.15;;;;;;;14.60;59.20;100950.88;10259926;29;20039;-89
2023/06/05 15:04:36;;;;;;;5.78;1.00;;;;;;;14.51;58.86;100931.41;10233905;29;20038;-87
2023/06/05 15:09:39;;;;;;;3.33;1.23;;;;;;;14.52;58.81;100938.56;10262608;29;20416;-88
2023/06/05 15:14:41;;;;;;;2.65;1.38;;;;;;;14.56;58.85;100939.59;10295388;28;20043;-89
2023/06/05 15:19:44;;;;;;;5.60;1.20;;;;;;;14.50;58.24;100940.81;10249428;29;20049;-90
2023/06/05 15:24:51;;;;;;;2.30;1.25;;;;;;;14.46;58.35;100939.75;10247614;28;20051;-87
2023/06/05 15:29:53;;;;;;;3.83;1.05;;;;;;;14.43;58.83;100934.81;10276722;29;20043;-85
2023/06/05 15:34:55;;;;;;;3.15;1.35;;;;;;;14.37;58.68;100936.00;10206866;29;20071;-86
2023/06/05 15:39:58;;;;;;;1.40;1.00;;;;;;;14.24;58.82;100929.31;10249302;28;20064;-87
2023/06/05 15:45:07;;;;;;;3.72;1.10;;;;;;;14.41;58.42;100928.78;10287517;29;20424;-86
2023/06/05 15:50:10;;;;;;;3.05;1.15;;;;;;;14.51;57.22;100925.88;10252364;29;20058;-88
2023/06/05 15:55:12;;;;;;;3.75;1.20;;;;;;;14.61;56.61;100919.38;10240401;29;20412;-83
2023/06/05 16:00:18;;;;;;;2.25;1.10;;;;;;;14.70;57.28;100921.13;10237857;29;20047;-87
2023/06/05 16:05:21;;;;;;;2.28;1.00;;;;;;;14.73;56.25;100917.75;10251597;29;20051;-86
2023/06/05 16:10:23;;;;;;;6.20;1.40;;;;;;;14.78;56.59;100914.13;10286534;28;20043;-86
2023/06/05 16:15:26;;;;;;;3.97;1.55;;;;;;;14.86;56.55;100920.88;10269198;29;20038;-86
2023/06/05 16:20:28;;;;;;;1.42;0.93;;;;;;;14.78;56.62;100920.47;10248589;29;20047;-86
2023/06/05 16:25:31;;;;;;;1.00;0.75;;;;;;;14.68;56.49;100920.63;10254334;28;20054;-88
2023/06/05 16:30:33;;;;;;;3.85;1.52;;;;;;;14.59;57.04;100916.09;10271792;28;20501;-87
2023/06/05 16:35:35;;;;;;;3.63;1.25;;;;;;;14.42;57.16;100911.09;10255602;28;20089;-92
2023/06/05 16:40:39;;;;;;;3.00;0.95;;;;;;;14.28;58.13;100922.06;10252131;29;20456;-85
2023/06/05 16:45:41;;;;;;;5.25;1.00;;;;;;;14.23;58.45;100913.00;10247955;28;20039;-82
2023/06/05 16:50:45;;;;;;;1.05;0.80;;;;;;;14.23;58.42;100907.50;10276516;29;20433;-84
2023/06/05 16:55:47;;;;;;;2.08;1.20;;;;;;;14.08;59.28;100912.16;10270396;28;20043;-86
2023/06/05 17:00:52;;;;;;;4.65;1.13;;;;;;;13.87;59.40;100921.78;10269419;28;20424;-87
2023/06/05 17:05:55;;;;;;;2.67;1.45;;;;;;;13.70;60.72;100915.94;10237926;28;20051;-86
2023/06/05 17:10:57;;;;;;;1.77;1.15;;;;;;;13.53;61.04;100914.50;10273280;29;20047;-83
2023/06/05 17:15:59;;;;;;;3.30;1.08;;;;;;;13.37;61.93;100918.56;10232616;28;20132;-85
2023/06/05 17:21:02;;;;;;;2.72;1.10;;;;;;;13.24;62.14;100908.25;10245978;28;20050;-87
2023/06/05 17:26:12;;;;;;;3.15;1.10;;;;;;;13.13;62.91;100906.66;10251147;28;20046;-89
2023/06/05 17:31:20;;;;;;;1.83;1.30;;;;;;;13.06;63.14;100906.19;10261137;28;20034;-88
2023/06/05 17:36:23;;;;;;;1.38;1.02;;;;;;;13.04;62.91;100900.16;10261425;28;20046;-88
2023/06/05 17:41:25;;;;;;;3.35;1.10;;;;;;;12.98;63.37;100900.19;10274224;28;20383;-88
2023/06/05 17:46:28;;;;;;;2.63;1.13;;;;;;;12.95;63.44;100917.31;10262819;28;20043;-87
2023/06/05 17:51:32;;;;;;;2.25;1.30;;;;;;;12.88;64.08;100916.84;10266790;28;20043;-86
2023/06/05 17:56:37;;;;;;;2.10;1.17;;;;;;;12.93;64.15;100910.44;10257721;29;20055;-84
2023/06/05 18:01:40;;;;;;;1.40;1.00;;;;;;;12.92;63.86;100906.88;10269023;28;20043;-86
2023/06/05 18:06:42;;;;;;;2.28;1.30;;;;;;;12.93;63.89;100914.03;10269004;28;20043;-87
2023/06/05 18:11:44;;;;;;;1.70;1.00;;;;;;;12.92;64.13;100906.88;10260996;28;20042;-89
2023/06/05 18:16:49;;;;;;;2.63;1.05;;;;;;;12.94;64.06;100893.63;10263897;28;20031;-85
2023/06/05 18:21:53;;;;;;;3.08;1.35;;;;;;;12.91;64.19;100902.47;10268051;29;20160;-84
2023/06/05 18:27:03;;;;;;;3.58;1.38;;;;;;;12.90;64.16;100902.78;10284918;28;20043;-88
2023/06/05 18:32:06;;;;;;;2.38;1.23;;;;;;;12.84;64.53;100901.16;10268565;28;20070;-89
2023/06/05 18:37:09;;;;;;;2.88;1.33;;;;;;;12.79;64.63;100913.06;10259213;28;20039;-87
2023/06/05 18:42:11;;;;;;;1.85;1.13;;;;;;;12.67;64.79;100918.97;10298705;23;20050;-75
2023/06/05 18:47:13;;;;;;;2.47;0.90;;;;;;;12.64;66.07;100921.44;10321602;28;20039;-78
2023/06/05 18:52:16;;;;;;;2.80;0.93;;;;;;;12.60;66.19;100920.38;10317242;28;20047;-75
2023/06/05 18:57:21;;;;;;;2.17;1.30;;;;;;;12.56;66.30;100919.31;10330168;28;20046;-78
2023/06/05 19:02:24;;;;;;;2.85;1.30;;;;;;;12.47;66.64;100910.03;10308881;28;20058;-79
2023/06/05 19:07:26;;;;;;;1.77;1.13;;;;;;;12.44;66.93;100907.84;10319349;28;20058;-79
2023/06/05 19:12:28;;;;;;;1.38;0.90;;;;;;;12.35;67.68;100908.47;10310533;28;20401;-81
2023/06/05 19:17:35;;;;;;;2.15;1.30;;;;;;;12.28;67.55;100907.94;10326802;28;20054;-78
2023/06/05 19:22:38;;;;;;;3.97;1.60;;;;;;;12.28;68.02;100918.13;10320437;28;20047;-80
2023/06/05 19:27:40;;;;;;;3.08;1.20;;;;;;;12.23;68.88;100915.44;10318784;28;20034;-79
2023/06/05 19:32:43;;;;;;;2.72;1.58;;;;;;;12.15;69.08;100916.00;10323536;28;20524;-77
2023/06/05 19:37:46;;;;;;;1.17;1.02;;;;;;;12.07;69.58;100911.94;10324428;28;20505;-77
2023/06/05 19:42:49;;;;;;;1.90;1.35;;;;;;;12.02;69.35;100920.25;10324802;28;20422;-76
2023/06/05 19:47:51;;;;;;;2.08;1.40;;;;;;;11.91;69.59;100924.16;10323671;28;20595;-77
2023/06/05 19:52:54;;;;;;;5.35;1.40;;;;;;;11.89;70.42;100916.19;10325675;28;20441;-77
2023/06/05 19:58:00;;;;;;;2.28;1.20;;;;;;;11.82;70.74;100926.69;10321434;28;20050;-77
2023/06/05 20:03:07;;;;;;;2.22;1.25;;;;;;;11.78;70.52;100920.91;10291869;28;20067;-78
2023/06/05 20:08:10;;;;;;;2.63;1.05;;;;;;;11.74;71.47;100919.78;10316699;28;20054;-78
2023/06/05 20:13:38;;;;;;;4.93;1.33;;;;;;;11.71;71.60;100925.84;10297088;28;20066;-77
2023/06/05 20:18:42;;;;;;;5.75;1.17;;;;;;;11.68;71.06;100925.59;10321833;28;20058;-78
2023/06/05 20:23:47;;;;;;;3.67;1.50;;;;;;;11.63;71.88;100931.97;10320070;28;20116;-77
2023/06/05 20:28:50;;;;;;;2.25;1.38;;;;;;;11.66;72.07;100934.13;10293466;28;20035;-76
2023/06/05 20:33:55;;;;;;;2.35;1.33;;;;;;;11.62;72.23;100940.44;10310217;28;20496;-79
2023/06/05 20:38:57;;;;;;;3.92;1.55;;;;;;;11.61;73.15;100947.88;10287450;28;20059;-76
2023/06/05 20:43:59;;;;;;;3.95;1.50;;;;;;;11.52;73.22;100938.59;10324778;28;20054;-77
2023/06/05 20:49:03;;;;;;;3.38;1.38;;;;;;;11.47;73.60;100953.16;10291892;28;20043;-77
2023/06/05 20:54:06;;;;;;;1.73;1.20;;;;;;;11.37;73.68;100955.94;10285775;28;20059;-77
2023/06/05 20:59:08;;;;;;;4.15;1.35;;;;;;;11.29;73.62;100961.19;10300580;28;20047;-77
2023/06/05 21:04:10;;;;;;;2.30;1.30;;;;;;;11.21;75.02;100976.28;10313015;28;20047;-78
2023/06/05 21:09:13;;;;;;;3.15;1.40;;;;;;;11.15;75.51;100975.50;10297286;28;20427;-76
2023/06/05 21:14:15;;;;;;;4.32;1.40;;;;;;;11.10;75.95;100975.47;10313849;28;20378;-80
2023/06/05 21:19:18;;;;;;;2.05;1.40;;;;;;;11.11;76.43;100987.31;10313357;28;20047;-78
2023/06/05 21:24:20;;;;;;;5.35;1.55;;;;;;;11.11;76.41;100974.41;10295627;28;20042;-80
2023/06/05 21:29:22;;;;;;;4.53;1.45;;;;;;;11.05;77.11;100982.91;10321664;28;20059;-82
2023/06/05 21:34:27;;;;;;;1.58;1.13;;;;;;;11.01;76.94;100979.91;10305640;28;20034;-79
2023/06/05 21:39:30;;;;;;;3.53;1.52;;;;;;;10.94;78.56;100995.84;10294641;28;20536;-82
2023/06/05 21:44:32;;;;;;;2.92;1.70;;;;;;;10.92;79.16;100988.94;10305904;28;20039;-82
2023/06/05 21:49:34;;;;;;;2.35;1.05;;;;;;;10.90;80.19;100983.72;10285554;28;20638;-81
2023/06/05 21:54:38;;;;;;;3.45;1.30;;;;;;;10.94;80.30;100995.84;10304311;28;20051;-80
2023/06/05 21:59:40;;;;;;;4.13;1.42;;;;;;;10.96;81.06;100979.09;10312695;28;20418;-76
2023/06/05 22:04:43;;;;;;;4.22;1.40;;;;;;;11.03;81.30;100991.41;10316196;28;20051;-78
2023/06/05 22:09:45;;;;;;;4.30;1.83;;;;;;;10.98;81.82;101005.16;10323445;28;20050;-76
2023/06/05 22:14:51;;;;;;;4.80;1.63;;;;;;;10.99;81.67;101005.97;10317290;28;20046;-81
2023/06/05 22:19:54;;;;;;;4.25;1.52;;;;;;;10.94;81.20;100997.75;10316154;28;20046;-82
2023/06/05 22:24:57;;;;;;;5.22;1.63;;;;;;;10.93;81.20;101005.13;10300379;28;20138;-77
2023/06/05 22:29:59;;;;;;;1.90;1.27;;;;;;;10.91;81.78;101003.78;10306631;28;20429;-78
2023/06/05 22:35:02;;;;;;;3.05;1.42;;;;;;;10.85;82.26;101011.19;10306855;28;20038;-76
2023/06/05 22:40:05;;;;;;;2.13;1.38;;;;;;;10.83;82.26;101010.66;10314255;28;20058;-76
2023/06/05 22:45:08;;;;;;;3.60;1.60;;;;;;;10.81;81.82;101010.09;10299123;28;20051;-77
2023/06/05 22:50:10;;;;;;;2.72;1.20;;;;;;;10.79;81.72;101023.28;10301497;28;20053;-77
2023/06/05 22:55:12;;;;;;;3.35;1.50;;;;;;;10.78;82.21;101021.63;10311546;28;20039;-76
2023/06/05 23:00:15;;;;;;;4.10;1.80;;;;;;;10.73;81.98;101018.84;10314540;28;20254;-76
2023/06/05 23:05:17;;;;;;;4.10;1.50;;;;;;;10.72;82.19;101033.69;10307458;28;20058;-76
2023/06/05 23:10:19;;;;;;;4.20;1.23;;;;;;;10.70;82.65;101031.22;10293483;28;20174;-76
2023/06/05 23:15:22;;;;;;;3.13;1.20;;;;;;;10.66;82.86;101027.38;10327728;28;20046;-76
2023/06/05 23:20:25;;;;;;;2.58;1.63;;;;;;;10.61;82.81;101030.13;10317878;28;20039;-77
2023/06/05 23:25:29;;;;;;;1.83;1.42;;;;;;;10.61;82.39;101035.59;10300184;28;20042;-77